createdAt,value
2018-01-15T00:02:23.523Z,22.40
2018-01-15T00:04:51.450Z,21.52
2018-01-15T00:07:19.455Z,25.50
2018-01-15T00:09:48.127Z,25.35
2018-01-15T00:12:16.088Z,24.42
2018-01-15T00:14:44.004Z,23.10
2018-01-15T00:17:12.081Z,22.67
2018-01-15T00:19:39.999Z,23.42
2018-01-15T00:22:08.043Z,21.02
2018-01-15T00:24:35.984Z,17.10
2018-01-15T00:27:03.923Z,20.08
2018-01-15T00:29:32.584Z,23.02
2018-01-15T00:32:00.567Z,23.58
2018-01-15T00:34:28.511Z,23.83
2018-01-15T00:36:57.553Z,24.85
2018-01-15T00:39:26.283Z,21.62
2018-01-15T00:41:54.192Z,25.75
2018-01-15T00:44:23.383Z,24.00
2018-01-15T00:46:52.336Z,23.85
2018-01-15T00:49:21.069Z,22.55
2018-01-15T00:51:49.199Z,21.40
2018-01-15T00:54:17.131Z,26.45
2018-01-15T00:56:49.829Z,21.00
2018-01-15T00:59:17.766Z,23.12
2018-01-15T01:01:45.669Z,21.95
2018-01-15T01:04:13.631Z,25.83
2018-01-15T01:06:41.573Z,25.40
2018-01-15T01:09:09.535Z,23.77
2018-01-15T01:11:37.429Z,23.05
2018-01-15T01:14:05.372Z,22.80
2018-01-15T01:16:33.265Z,25.98
2018-01-15T01:19:01.206Z,21.08
2018-01-15T01:21:29.099Z,19.83
2018-01-15T01:23:57.043Z,19.45
2018-01-15T01:26:25.149Z,19.50
2018-01-15T01:28:53.846Z,20.70
2018-01-15T01:31:21.740Z,22.90
2018-01-15T01:33:49.686Z,23.00
2018-01-15T01:36:17.579Z,20.02
2018-01-15T01:38:45.506Z,18.02
2018-01-15T01:41:14.165Z,19.73
2018-01-15T01:43:42.107Z,19.02
2018-01-15T01:46:10.034Z,17.90
2018-01-15T01:48:38.696Z,23.23
2018-01-15T01:51:06.637Z,24.48
2018-01-15T01:53:34.532Z,19.52
2018-01-15T01:56:02.639Z,20.15
2018-01-15T01:58:31.290Z,20.62
2018-01-15T02:00:59.232Z,19.60
2018-01-15T02:03:27.137Z,21.98
2018-01-15T02:05:55.076Z,19.25
2018-01-15T02:08:22.955Z,21.90
2018-01-15T02:10:50.885Z,18.95
2018-01-15T02:13:18.762Z,20.00
2018-01-15T02:15:46.702Z,20.80
2018-01-15T02:18:14.675Z,21.37
2018-01-15T02:20:43.368Z,20.62
2018-01-15T02:23:11.269Z,20.73
2018-01-15T02:25:39.228Z,20.73
2018-01-15T02:28:07.164Z,22.60
2018-01-15T02:30:35.131Z,18.58
2018-01-15T02:33:03.015Z,19.92
2018-01-15T02:35:30.948Z,17.87
2018-01-15T02:37:58.832Z,17.42
2018-01-15T02:40:26.767Z,20.37
2018-01-15T02:42:54.643Z,19.40
2018-01-15T02:45:22.592Z,20.42
2018-01-15T02:47:50.661Z,21.02
2018-01-15T02:50:18.554Z,18.20
2018-01-15T02:52:46.504Z,22.77
2018-01-15T02:55:14.388Z,20.58
2018-01-15T02:57:42.336Z,19.00
2018-01-15T03:00:10.248Z,21.67
2018-01-15T03:02:38.192Z,21.35
2018-01-15T03:05:06.080Z,21.05
2018-01-15T03:07:34.007Z,18.17
2018-01-15T03:10:01.887Z,17.90
2018-01-15T03:12:29.820Z,20.58
2018-01-15T03:14:58.478Z,19.00
2018-01-15T03:17:26.603Z,24.95
2018-01-15T03:19:54.502Z,19.55
2018-01-15T03:22:22.440Z,21.37
2018-01-15T03:24:50.332Z,17.62
2018-01-15T03:27:18.298Z,20.40
2018-01-15T03:29:46.177Z,20.52
2018-01-15T03:32:14.141Z,21.42
2018-01-15T03:34:42.037Z,23.10
2018-01-15T03:37:09.978Z,19.05
2018-01-15T03:39:37.864Z,17.58
2018-01-15T03:42:05.821Z,20.70
2018-01-15T03:44:33.737Z,21.65
2018-01-15T03:47:02.833Z,21.65
2018-01-15T03:49:31.542Z,20.10
2018-01-15T03:51:59.428Z,21.23
2018-01-15T03:54:27.369Z,25.62
2018-01-15T03:56:55.318Z,21.05
2018-01-15T03:59:23.249Z,19.45
2018-01-15T04:01:51.141Z,21.62
2018-01-15T04:04:19.093Z,23.77
2018-01-15T04:06:46.992Z,20.80
2018-01-15T04:09:15.693Z,22.70
2018-01-15T04:11:43.586Z,21.42
2018-01-15T04:14:11.533Z,20.77
2018-01-15T04:16:40.609Z,21.05
2018-01-15T04:19:08.537Z,22.87
2018-01-15T04:21:36.413Z,23.60
2018-01-15T04:24:04.361Z,22.92
2018-01-15T04:26:32.249Z,22.95
2018-01-15T04:29:00.178Z,23.83
2018-01-15T04:31:28.056Z,22.23
2018-01-15T04:33:56.008Z,22.87
2018-01-15T04:36:23.955Z,23.12
2018-01-15T04:38:51.884Z,18.67
2018-01-15T04:41:19.773Z,23.12
2018-01-15T04:43:47.710Z,22.20
2018-01-15T04:46:15.671Z,22.77
2018-01-15T04:48:43.629Z,22.25
2018-01-15T04:51:11.548Z,24.35
2018-01-15T04:53:39.639Z,22.92
2018-01-15T04:56:07.538Z,23.08
2018-01-15T04:58:35.416Z,28.52
2018-01-15T05:01:03.362Z,22.15
2018-01-15T05:03:31.251Z,22.70
2018-01-15T05:05:59.194Z,23.02
2018-01-15T05:08:27.078Z,21.15
2018-01-15T05:10:55.789Z,24.87
2018-01-15T05:13:23.659Z,25.60
2018-01-15T05:15:57.996Z,24.00
2018-01-15T05:18:30.184Z,25.33
2018-01-15T05:21:02.145Z,20.98
2018-01-15T05:23:32.221Z,24.63
2018-01-15T05:26:03.367Z,24.40
2018-01-15T05:28:34.487Z,25.12
2018-01-15T05:31:03.405Z,23.67
2018-01-15T05:33:31.298Z,23.33
2018-01-15T05:35:59.240Z,23.92
2018-01-15T05:38:27.122Z,25.37
2018-01-15T05:40:55.069Z,27.35
2018-01-15T05:43:22.950Z,24.55
2018-01-15T05:45:50.874Z,23.20
2018-01-15T05:48:18.760Z,25.55
2018-01-15T05:50:47.450Z,24.15
2018-01-15T05:53:16.097Z,25.17
2018-01-15T05:55:44.039Z,22.37
2018-01-15T05:58:11.904Z,23.05
2018-01-15T06:00:39.839Z,26.48
2018-01-15T06:03:08.785Z,23.30
2018-01-15T06:05:36.766Z,28.27
2018-01-15T06:08:04.794Z,25.27
2018-01-15T06:10:32.673Z,27.20
2018-01-15T06:13:00.612Z,25.90
2018-01-15T06:15:29.263Z,26.75
2018-01-15T06:17:57.201Z,28.25
2018-01-15T06:20:25.080Z,22.60
2018-01-15T06:22:53.016Z,27.73
2018-01-15T06:25:20.913Z,26.62
2018-01-15T06:27:48.841Z,25.67
2018-01-15T06:30:16.730Z,22.25
2018-01-15T06:32:44.681Z,25.10
2018-01-15T06:35:12.576Z,27.90
2018-01-15T06:37:43.484Z,24.85
2018-01-15T06:40:11.365Z,24.25
2018-01-15T06:42:39.301Z,26.17
2018-01-15T06:45:07.179Z,24.60
2018-01-15T06:47:35.124Z,26.80
2018-01-15T06:50:03.025Z,25.10
2018-01-15T06:52:30.954Z,22.90
2018-01-15T06:54:58.857Z,25.83
2018-01-15T06:57:26.791Z,28.70
2018-01-15T06:59:54.687Z,26.95
2018-01-15T07:02:22.631Z,26.55
2018-01-15T07:04:50.533Z,26.20
2018-01-15T07:07:18.539Z,28.02
2018-01-15T07:09:46.419Z,23.80
2018-01-15T07:12:14.356Z,26.70
2018-01-15T07:14:43.009Z,26.85
2018-01-15T07:17:10.896Z,25.70
2018-01-15T07:19:38.848Z,30.67
2018-01-15T07:22:06.742Z,33.90
2018-01-15T07:24:34.660Z,28.65
2018-01-15T07:27:02.546Z,35.15
2018-01-15T07:29:30.488Z,32.95
2018-01-15T07:31:58.374Z,29.77
2018-01-15T07:34:26.294Z,27.60
2018-01-15T07:36:57.206Z,31.20
2018-01-15T07:39:25.135Z,25.90
2018-01-15T07:41:53.021Z,26.67
2018-01-15T07:44:20.956Z,26.92
2018-01-15T07:46:48.849Z,28.92
2018-01-15T07:49:16.781Z,66.28
2018-01-15T07:51:44.651Z,42.60
2018-01-15T07:54:12.584Z,29.98
2018-01-15T07:56:40.455Z,28.67
2018-01-15T07:59:08.388Z,31.40
2018-01-15T08:01:36.271Z,31.52
2018-01-15T08:04:04.294Z,25.62
2018-01-15T08:06:32.249Z,27.35
2018-01-15T08:09:00.290Z,27.33
2018-01-15T08:11:28.189Z,28.17
2018-01-15T08:13:56.149Z,29.33
2018-01-15T08:16:24.029Z,28.02
2018-01-15T08:18:51.913Z,25.55
2018-01-15T08:21:20.599Z,25.15
2018-01-15T08:23:48.485Z,26.30
2018-01-15T08:26:16.416Z,28.65
2018-01-15T08:28:44.307Z,28.65
2018-01-15T08:31:13.009Z,33.05
2018-01-15T08:33:40.931Z,31.02
2018-01-15T08:36:12.575Z,32.03
2018-01-15T08:38:40.457Z,29.70
2018-01-15T08:41:08.411Z,24.65
2018-01-15T08:43:36.307Z,29.45
2018-01-15T08:46:04.322Z,28.42
2018-01-15T08:48:32.206Z,29.45
2018-01-15T08:51:00.138Z,24.63
2018-01-15T08:53:28.013Z,24.52
2018-01-15T08:55:55.948Z,28.35
2018-01-15T08:58:23.839Z,29.40
2018-01-15T09:00:51.831Z,28.12
2018-01-15T09:03:19.722Z,35.33
2018-01-15T09:05:47.662Z,30.55
2018-01-15T09:08:15.545Z,30.40
2018-01-15T09:10:43.464Z,26.65
2018-01-15T09:13:11.361Z,32.10
2018-01-15T09:15:39.300Z,26.50
2018-01-15T09:18:07.231Z,29.58
2018-01-15T09:20:35.136Z,32.05
2018-01-15T09:23:03.070Z,29.20
2018-01-15T09:25:30.962Z,29.42
2018-01-15T09:27:58.892Z,31.83
2018-01-15T09:30:26.764Z,31.52
2018-01-15T09:32:54.685Z,25.30
2018-01-15T09:35:22.548Z,29.98
2018-01-15T09:37:50.993Z,33.60
2018-01-15T09:40:18.952Z,35.90
2018-01-15T09:42:46.902Z,30.23
2018-01-15T09:45:15.764Z,23.58
2018-01-15T09:47:43.837Z,29.00
2018-01-15T09:50:11.745Z,28.87
2018-01-15T09:52:39.715Z,28.55
2018-01-15T09:55:07.593Z,27.62
2018-01-15T09:57:36.358Z,29.12
2018-01-15T10:00:05.031Z,34.38
2018-01-15T10:02:32.950Z,26.23
2018-01-15T10:05:00.835Z,28.90
2018-01-15T10:07:28.792Z,28.92
2018-01-15T10:09:56.691Z,29.05
2018-01-15T10:12:25.086Z,37.25
2018-01-15T10:14:52.946Z,27.23
2018-01-15T10:17:20.876Z,26.55
2018-01-15T10:19:48.760Z,30.40
2018-01-15T10:22:17.173Z,26.50
2018-01-15T10:24:45.247Z,25.70
2018-01-15T10:27:13.233Z,27.83
2018-01-15T10:29:41.171Z,24.87
2018-01-15T10:32:09.055Z,25.60
2018-01-15T10:34:37.817Z,27.50
2018-01-15T10:37:05.707Z,22.77
2018-01-15T10:39:33.644Z,26.67
2018-01-15T10:42:01.538Z,27.23
2018-01-15T10:44:29.524Z,25.92
2018-01-15T10:46:57.417Z,24.80
2018-01-15T10:49:25.348Z,24.45
2018-01-15T10:51:53.237Z,25.15
2018-01-15T10:54:21.182Z,26.87
2018-01-15T10:56:49.286Z,29.15
2018-01-15T10:59:17.209Z,26.30
2018-01-15T11:01:45.117Z,27.30
2018-01-15T11:04:13.016Z,24.60
2018-01-15T11:06:41.670Z,26.73
2018-01-15T11:09:09.614Z,25.52
2018-01-15T11:11:37.477Z,27.15
2018-01-15T11:14:05.434Z,32.53
2018-01-15T11:16:34.495Z,22.50
2018-01-15T11:19:02.618Z,28.02
2018-01-15T11:21:32.941Z,27.45
2018-01-15T11:24:01.003Z,28.27
2018-01-15T11:26:34.421Z,27.25
2018-01-15T11:29:02.345Z,25.42
2018-01-15T11:31:30.223Z,27.13
2018-01-15T11:33:58.204Z,23.92
2018-01-15T11:36:26.093Z,26.08
2018-01-15T11:38:53.984Z,24.67
2018-01-15T11:41:22.689Z,29.40
2018-01-15T11:43:50.577Z,23.45
2018-01-15T11:46:18.515Z,25.15
2018-01-15T11:48:47.178Z,24.33
2018-01-15T11:51:15.110Z,34.58
2018-01-15T11:53:42.996Z,24.67
2018-01-15T11:56:10.933Z,23.10
2018-01-15T11:58:38.818Z,25.30
2018-01-15T12:01:06.749Z,22.48
2018-01-15T12:03:35.411Z,23.50
2018-01-15T12:06:03.348Z,25.50
2018-01-15T12:08:31.273Z,27.75
2018-01-15T12:10:59.256Z,23.70
2018-01-15T12:13:27.134Z,20.77
2018-01-15T12:15:55.119Z,23.55
2018-01-15T12:18:22.992Z,24.45
2018-01-15T12:20:50.916Z,23.55
2018-01-15T12:23:18.779Z,21.23
2018-01-15T12:25:46.790Z,22.85
2018-01-15T12:28:14.764Z,22.23
2018-01-15T12:30:42.710Z,25.25
2018-01-15T12:33:11.262Z,19.92
2018-01-15T12:35:39.214Z,20.02
2018-01-15T12:38:07.190Z,19.25
2018-01-15T12:40:35.874Z,20.10
2018-01-15T12:43:03.805Z,19.92
2018-01-15T12:45:31.678Z,21.62
2018-01-15T12:48:01.045Z,19.58
2018-01-15T12:50:29.755Z,19.87
2018-01-15T12:52:57.684Z,18.83
2018-01-15T12:55:25.575Z,17.65
2018-01-15T12:57:54.263Z,20.67
2018-01-15T13:00:22.916Z,22.27
2018-01-15T13:02:50.847Z,21.50
2018-01-15T13:05:18.808Z,17.23
2018-01-15T13:07:58.478Z,20.83
2018-01-15T13:10:26.363Z,20.80
2018-01-15T13:12:54.315Z,19.85
2018-01-15T13:15:22.198Z,14.70
2018-01-15T13:17:50.125Z,23.17
2018-01-15T13:20:17.993Z,17.60
2018-01-15T13:22:45.997Z,16.17
2018-01-15T13:25:13.867Z,14.48
2018-01-15T13:27:41.788Z,17.23
2018-01-15T13:30:09.674Z,19.87
2018-01-15T13:32:37.601Z,16.48
2018-01-15T13:35:05.484Z,14.23
2018-01-15T13:37:35.403Z,14.15
2018-01-15T13:40:04.176Z,14.70
2018-01-15T13:42:32.103Z,17.27
2018-01-15T13:44:59.974Z,13.57
2018-01-15T13:47:27.871Z,19.37
2018-01-15T13:49:55.895Z,15.80
2018-01-15T13:52:23.781Z,15.40
2018-01-15T13:54:51.702Z,13.73
2018-01-15T13:57:19.567Z,15.13
2018-01-15T13:59:47.511Z,13.02
2018-01-15T14:02:15.385Z,13.45
2018-01-15T14:04:43.309Z,16.08
2018-01-15T14:07:11.324Z,16.23
2018-01-15T14:09:39.321Z,17.37
2018-01-15T14:12:07.197Z,15.50
2018-01-15T14:14:35.936Z,16.33
2018-01-15T14:17:03.860Z,17.12
2018-01-15T14:19:31.793Z,16.77
2018-01-15T14:21:59.662Z,19.15
2018-01-15T14:24:27.577Z,17.55
2018-01-15T14:26:55.451Z,29.73
2018-01-15T14:29:23.377Z,14.25
2018-01-15T14:31:51.259Z,14.05
2018-01-15T14:34:19.282Z,17.48
2018-01-15T14:36:47.285Z,19.70
2018-01-15T14:39:15.222Z,18.27
2018-01-15T14:41:43.110Z,17.75
2018-01-15T14:44:11.024Z,15.15
2018-01-15T14:46:38.902Z,18.40
2018-01-15T14:49:06.822Z,14.02
2018-01-15T14:51:34.682Z,15.07
2018-01-15T14:54:02.575Z,14.87
2018-01-15T14:56:31.329Z,20.33
2018-01-15T14:58:59.281Z,18.90
2018-01-15T15:01:27.224Z,17.85
2018-01-15T15:03:55.127Z,16.73
2018-01-15T15:06:24.173Z,19.73
2018-01-15T15:08:52.797Z,17.23
2018-01-15T15:11:20.717Z,22.42
2018-01-15T15:13:48.633Z,21.00
2018-01-15T15:16:16.577Z,17.73
2018-01-15T15:18:44.654Z,17.65
2018-01-15T15:21:12.569Z,18.00
2018-01-15T15:23:40.446Z,16.42
2018-01-15T15:26:08.415Z,18.00
2018-01-15T15:28:36.302Z,16.92
2018-01-15T15:31:04.226Z,22.50
2018-01-15T15:33:32.093Z,19.05
2018-01-15T15:36:00.134Z,18.45
2018-01-15T15:38:28.031Z,18.27
2018-01-15T15:40:55.944Z,15.35
2018-01-15T15:43:23.815Z,18.30
2018-01-15T15:45:51.742Z,15.07
2018-01-15T15:48:19.694Z,15.82
2018-01-15T15:50:47.665Z,18.12
2018-01-15T15:53:15.549Z,13.68
2018-01-15T15:55:43.611Z,16.23
2018-01-15T15:58:19.147Z,10.68
2018-01-15T16:00:47.084Z,14.13
2018-01-15T16:03:14.962Z,11.12
2018-01-15T16:05:42.837Z,11.80
2018-01-15T16:08:10.770Z,10.20
2018-01-15T16:10:38.656Z,9.82
2018-01-15T16:13:06.571Z,8.82
2018-01-15T16:15:34.450Z,7.85
2018-01-15T16:18:02.389Z,11.93
2018-01-15T16:20:30.251Z,8.77
2018-01-15T16:23:01.085Z,7.53
2018-01-15T16:25:28.956Z,9.43
2018-01-15T16:27:57.692Z,7.25
2018-01-15T16:30:25.586Z,4.90
2018-01-15T16:32:53.500Z,5.62
2018-01-15T16:35:21.424Z,8.82
2018-01-15T16:37:53.022Z,6.22
2018-01-15T16:40:20.910Z,49.20
2018-01-15T16:42:48.873Z,8.85
2018-01-15T16:45:16.756Z,5.12
2018-01-15T16:47:44.723Z,7.80
2018-01-15T16:50:29.145Z,6.93
2018-01-15T16:52:57.087Z,7.50
2018-01-15T16:55:24.963Z,6.78
2018-01-15T16:57:52.883Z,5.70
2018-01-15T17:00:20.737Z,5.05
2018-01-15T17:02:48.671Z,7.43
2018-01-15T17:05:16.624Z,6.55
2018-01-15T17:07:44.549Z,4.40
2018-01-15T17:10:12.420Z,6.53
2018-01-15T17:12:40.398Z,6.70
2018-01-15T17:15:08.263Z,5.70
2018-01-15T17:17:44.412Z,6.35
2018-01-15T17:20:12.467Z,11.95
2018-01-15T17:22:40.338Z,5.18
2018-01-15T17:25:08.263Z,4.85
2018-01-15T17:27:36.189Z,5.80
2018-01-15T17:30:04.911Z,5.95
2018-01-15T17:32:32.776Z,7.18
2018-01-15T17:35:00.848Z,5.35
2018-01-15T17:37:28.725Z,5.45
2018-01-15T17:39:56.647Z,6.03
2018-01-15T17:42:24.555Z,5.70
2018-01-15T17:44:52.482Z,9.50
2018-01-15T17:47:20.535Z,5.75
2018-01-15T17:49:48.487Z,6.45
2018-01-15T17:52:16.371Z,4.80
2018-01-15T17:54:45.050Z,6.07
2018-01-15T17:57:12.911Z,5.75
2018-01-15T17:59:40.826Z,8.35
2018-01-15T18:02:08.699Z,5.80
2018-01-15T18:04:36.719Z,7.37
2018-01-15T18:07:05.402Z,5.10
2018-01-15T18:09:33.330Z,6.47
2018-01-15T18:12:01.323Z,5.22
2018-01-15T18:14:29.328Z,6.28
2018-01-15T18:17:02.902Z,6.10
2018-01-15T18:19:30.884Z,5.93
2018-01-15T18:21:59.389Z,5.62
2018-01-15T18:24:28.229Z,6.68
2018-01-15T18:26:56.103Z,5.12
2018-01-15T18:29:23.981Z,7.07
2018-01-15T18:31:51.899Z,6.40
2018-01-15T18:34:19.790Z,6.85
2018-01-15T18:36:47.725Z,5.75
2018-01-15T18:39:15.601Z,6.55
2018-01-15T18:41:43.552Z,32.85
2018-01-15T18:44:12.199Z,8.35
2018-01-15T18:46:40.241Z,4.95
2018-01-15T18:49:08.109Z,6.97
2018-01-15T18:51:36.013Z,4.47
2018-01-15T18:54:03.908Z,3.75
2018-01-15T18:56:31.803Z,3.85
2018-01-15T18:58:59.670Z,3.62
2018-01-15T19:01:27.591Z,3.95
2018-01-15T19:03:55.464Z,3.83
2018-01-15T19:06:23.403Z,3.78
2018-01-15T19:08:51.285Z,3.20
2018-01-15T19:11:20.522Z,2.80
2018-01-15T19:13:48.429Z,2.70
2018-01-15T19:16:17.407Z,3.30
2018-01-15T19:18:45.428Z,3.65
2018-01-15T19:21:13.713Z,2.67
2018-01-15T19:23:41.574Z,3.55
2018-01-15T19:26:09.529Z,2.45
2018-01-15T19:28:37.534Z,2.22
2018-01-15T19:31:08.506Z,2.20
2018-01-15T19:33:36.625Z,3.08
2018-01-15T19:36:10.144Z,2.20
2018-01-15T19:38:38.864Z,1.90
2018-01-15T19:41:08.673Z,1.45
2018-01-15T19:47:00.458Z,1.48
2018-01-15T19:49:33.974Z,1.90
2018-01-15T19:52:07.638Z,1.00
2018-01-15T19:54:41.032Z,1.30
2018-01-15T19:57:14.608Z,1.48
2018-01-15T19:59:48.148Z,2.50
2018-01-15T20:02:21.729Z,0.93
2018-01-15T20:04:55.406Z,1.33
2018-01-15T20:07:28.927Z,1.00
2018-01-15T20:10:02.257Z,1.50
2018-01-15T20:12:30.305Z,1.10
2018-01-15T20:14:58.229Z,1.17
2018-01-15T20:17:26.187Z,0.75
2018-01-15T20:19:54.160Z,0.88
2018-01-15T20:22:22.095Z,1.02
2018-01-15T20:24:50.055Z,0.90
2018-01-15T20:27:17.978Z,1.27
2018-01-15T20:29:45.964Z,1.70
2018-01-15T20:32:13.939Z,2.60
2018-01-15T20:34:41.944Z,1.58
2018-01-15T20:37:10.021Z,1.40
2018-01-15T20:39:38.529Z,1.27
2018-01-15T20:42:06.435Z,0.62
2018-01-15T20:44:34.385Z,1.30
2018-01-15T20:47:02.612Z,0.70
2018-01-15T20:49:30.598Z,5.20
2018-01-15T20:51:58.501Z,1.80
2018-01-15T20:54:26.490Z,2.15
2018-01-15T20:56:54.383Z,3.37
2018-01-15T20:59:22.370Z,1.45
2018-01-15T21:01:50.313Z,0.70
2018-01-15T21:04:18.299Z,1.27
2018-01-15T21:06:46.293Z,0.75
2018-01-15T21:09:14.254Z,1.00
2018-01-15T21:11:42.157Z,1.17
2018-01-15T21:14:10.070Z,0.75
2018-01-15T21:16:38.815Z,0.80
2018-01-15T21:19:06.802Z,1.25
2018-01-15T21:21:34.801Z,1.45
2018-01-15T21:24:02.764Z,0.60
2018-01-15T21:26:30.695Z,0.95
2018-01-15T21:28:58.760Z,1.00
2018-01-15T21:31:26.766Z,1.02
2018-01-15T21:33:54.810Z,0.85
2018-01-15T21:36:24.928Z,0.70
2018-01-15T21:38:54.370Z,0.80
2018-01-15T21:41:22.364Z,0.70
2018-01-15T21:43:50.268Z,0.88
2018-01-15T21:46:18.318Z,0.90
2018-01-15T21:48:46.254Z,1.12
2018-01-15T21:51:14.213Z,0.70
2018-01-15T21:53:42.123Z,1.25
2018-01-15T21:56:11.364Z,0.93
2018-01-15T21:58:39.402Z,1.30
2018-01-15T22:01:07.457Z,1.00
2018-01-15T22:03:35.412Z,0.80
2018-01-15T22:06:05.065Z,2.55
2018-01-15T22:08:33.086Z,1.02
2018-01-15T22:11:01.109Z,0.93
2018-01-15T22:13:28.997Z,0.80
2018-01-15T22:15:56.898Z,1.20
2018-01-15T22:18:24.840Z,1.23
2018-01-15T22:20:52.824Z,1.02
2018-01-15T22:23:20.846Z,0.70
2018-01-15T22:25:48.870Z,0.60
2018-01-15T22:28:16.887Z,0.62
2018-01-15T22:30:44.906Z,0.70
2018-01-15T22:33:13.482Z,1.12
2018-01-15T22:35:41.416Z,1.08
2018-01-15T22:38:09.372Z,0.90
2018-01-15T22:40:37.266Z,0.80
2018-01-15T22:43:05.196Z,1.08
2018-01-15T22:45:33.093Z,0.90
2018-01-15T22:48:01.023Z,0.70
2018-01-15T22:50:28.888Z,0.90
2018-01-15T22:52:57.567Z,1.12
2018-01-15T22:55:25.435Z,0.80
2018-01-15T22:57:53.429Z,0.70
2018-01-15T23:00:21.315Z,1.75
2018-01-15T23:02:49.257Z,0.70
2018-01-15T23:05:17.928Z,0.73
2018-01-15T23:07:46.622Z,0.57
2018-01-15T23:10:19.190Z,0.85
2018-01-15T23:12:49.979Z,1.77
2018-01-15T23:15:21.471Z,0.70
2018-01-15T23:17:55.131Z,0.60
2018-01-15T23:20:25.964Z,0.90
2018-01-15T23:22:56.854Z,1.12
2018-01-15T23:25:27.107Z,0.90
2018-01-15T23:27:57.719Z,0.70
2018-01-15T23:30:28.631Z,1.35
2018-01-15T23:32:56.834Z,1.02
2018-01-15T23:35:24.717Z,1.08
2018-01-15T23:37:52.728Z,1.80
2018-01-15T23:40:20.628Z,5.30
2018-01-15T23:42:48.603Z,1.00
2018-01-15T23:45:16.495Z,1.45
2018-01-15T23:47:49.900Z,1.98
2018-01-15T23:50:17.782Z,1.12
2018-01-15T23:52:45.667Z,1.05
2018-01-15T23:55:13.612Z,1.15
2018-01-15T23:57:41.499Z,1.45
